LFMLLFMU

Guest
Details From LFML - Marseille Provence
To LFMU - Beziers Vias
Flight Number -
Tags generated
Created
Modified
Stats Distance 82 nm / 151 km
Max Altitude 5,800 ft / 1,768 m
Waypoints 3
Social Downloads 0
Likes 0
Share VATSIM

Download

Looking for another format? Having issues loading an existing format? Contact us
Advertisement - Login to hide

Notes

Basic altitude profile: - Ascent Rate: 1000ft/min - Ascent Speed: 120kts - Cruise Altitude: 4500ft - Cruise Speed: 180kts - Descent Rate: 1500ft/min - Descent Speed: 160kts Options: - Use NATs: yes - Use PACOTS: yes - Use low airways: yes - Use high airways: yes

Route

LFML RHONE LFMU

ID Type Via Altitude Latitude Longitude Leg Dist Tot Dist Heading (true) Name
O LFML APT - 0 ft / 0 m 43.43589˚ 5.21328˚ - 0 nm - Marseille Provence
RHONE FIX - 5,800 ft / 1,768 m 43.38603˚ 4.84456˚ 16 nm 16 nm 260° / 259° -
O LFMU APT - 0 ft / 0 m 43.32342˚ 3.35357˚ 65 nm 81 nm 267° / 266° Beziers Vias

Altitude Profile

Advertisement - Login to hide

LFML

Details ICAO LFML (MRS)
Name Marseille Provence
Region France
Timezone Europe/Paris (UTC+1.0)
Stats Elevation 74 ft / 23 m (AMSL)
Location 43.435892° 5.213282°
Runways 2
Magnetic Variation 1.553° E

METAR

LFML 161730Z AUTO 30020KT CAVOK 07/M01 Q1016 NOSIG

Decode

TAF

TAF TAF LFML 161400Z 1615/1721 31025KT CAVOK TEMPO 1615/1617 32028G38KT FEW050 PROB40 TEMPO 1620/1624 32030G40KT TEMPO 1712/1716 33028G38KT BECMG 1717/1719 33023G33KT TX09/1713Z TN04/1706Z

Decode

Departure Runways

ID Width Length Bearing (true) Bearing (mag) Surface Threshold Offset Overrun Length
13L 148 ft / 45 m 11,478 ft / 3,499 m 133.99° 132.44° Asphalt 1,115 ft / 340 m 0 ft / 0 m
13R 148 ft / 45 m 7,981 ft / 2,433 m 134.90° 133.35° Asphalt 0 ft / 0 m 0 ft / 0 m
31L 148 ft / 45 m 7,981 ft / 2,433 m 314.91° 313.36° Asphalt 344 ft / 105 m 0 ft / 0 m
31R 148 ft / 45 m 11,478 ft / 3,499 m 314.01° 312.46° Asphalt 2,165 ft / 660 m 0 ft / 0 m

LFMU

Details ICAO LFMU (BZR)
Name Beziers Vias
Region France
Timezone Europe/Paris (UTC+1.0)
Stats Elevation 54 ft / 16 m (AMSL)
Location 43.323422° 3.353573°
Runways 1
Magnetic Variation 1.100° E

METAR

LFMU 161730Z AUTO 30013KT CAVOK 06/M01 Q1020 TEMPO 31020G30KT

Decode

TAF

TAF LFMU 161400Z 1615/1715 30018KT CAVOK TEMPO 1615/1715 31020G30KT

Decode

Destination Runways

ID Width Length Bearing (true) Bearing (mag) Surface Threshold Offset Overrun Length
10 115 ft / 35 m 5,955 ft / 1,815 m 94.20° 93.10° Asphalt 459 ft / 140 m 0 ft / 0 m
28 115 ft / 35 m 5,955 ft / 1,815 m 274.22° 273.12° Asphalt 0 ft / 0 m 0 ft / 0 m

Approach Navaids

Runway Type Ident Frequency Range Bearing (true) Bearing (mag) Slope Elevation
10 Localiser ZR 109.35 MHz 18 nm / 33 km 94.52° 93.42° - 50 ft / 15 m (AMSL)
10 Glidescope ZR 109.35 MHz 10 nm / 19 km 94.21° 93.11° 3.00° 92 ft / 28 m (AMSL)
10 DME ZR 109.35 MHz 18 nm / 33 km - - - 92 ft / 28 m (AMSL)

Popular Alternatives